Klamath Falls, OR (97603)

2:53 PM PDT on July 30, 2015 (GMT -0700)
Lockford | | Change Station
CLOSE
Current Station
Personal Weather Station
Location: Klamath Falls, OR
Elevation: 4124 ft
Nearby Weather Stations

Elev 4124 ft 42.19 °N, 121.72 °W | Updated 49 seconds ago

Clear
Clear
95.9 °F
Feels Like 92 °F
N
4.5
Wind Variable Wind from NW
Gusts 7.6 mph

Today
High -- | Low -- °F
--% Chance of Precip.
Yesterday
High -- | Low -- °F
Precip. -- in
5:57 AM 8:28 PM
Full, 100% visible
Pressure 30.08 in
Visibility 10.0 miles
Clouds Clear
Heat Index 92 °F
Dew Point 42 °F
Humidity 16%
Rainfall 0.00 in
Snow Depth Not available.
UV 11 out of 12
Pollen 5.00 out of 12
Air Quality Not available.
Flu Activity Not available.
METAR KLMT 302053Z 16005KT 10SM CLR 33/M01 A3022 RMK AO2 SLP186 T03281006 58009

More Conditions Fewer Conditions

Pressure 30.08 in
Visibility 10.0 miles
Clouds Clear
Heat Index 92 °F
Dew Point 42 °F
Humidity 16%
Rainfall 0.00 in
Snow Depth Not available.
UV 11 out of 12
Pollen 5.00 out of 12
Air Quality Not available.
Flu Activity Not available.
METAR KLMT 302053Z 16005KT 10SM CLR 33/M01 A3022 RMK AO2 SLP186 T03281006 58009

More Conditions Fewer Conditions

10-Day Weather Forecast

×

Almanac

Astronomy

Jul. 30, 2015 Rise Set
Actual Time
Civil Twilight
Nautical Twilight
Astronomical Twilight
Moon
Length of Visible Light
Length of Day
Tomorrow will be .
, % of the Moon is Illuminated

Today's Extremes

State Highs State Lows

Community

WunderPhotos

Upload Photos

1,842,510 photos uploaded!

WunderBlogs® & News

Nearby

Air Quality

  Air Quality AQ Index Pollutant
Not available.

Snow Depth

Station Depth Elevation

Earthquake Activity

City Distance Mag. Time & Date
Minimum magnitude displayed is 2.5.

Coastal Water Temperatures

Place Temperature

Stations

Nearby Weather Stations

Station Location Temp. Windchill Dew Point Humidity Wind Precip. Elev Updated Type